Time;durP1;ratioP1;P1;durP2;ratioP2;P2;SDS_P1;SDS_P2;PMS_P1;PMS_P2;Temp;Humidity;BMP_temperature;BMP_pressure;BME280_temperature;BME280_humidity;BME280_pressure;Samples;Min_cycle;Max_cycle;Signal;HPM_P1;HPM_P2
2021/04/11 00:01:36;;;;;;;5.95;4.35;;;;;;;5.42;53.58;99827.41;6279390;22;19996;-76
2021/04/11 00:04:02;;;;;;;9.88;5.78;;;;;;;5.44;53.60;99830.66;6253210;22;20067;-79
2021/04/11 00:06:27;;;;;;;8.10;5.20;;;;;;;5.44;53.70;99820.88;6253629;22;20449;-80
2021/04/11 00:08:52;;;;;;;10.57;6.00;;;;;;;5.47;53.95;99822.25;6254050;22;20009;-80
2021/04/11 00:11:21;;;;;;;9.57;5.40;;;;;;;5.51;53.70;99823.41;6255988;22;20000;-79
2021/04/11 00:13:49;;;;;;;9.48;5.72;;;;;;;5.52;53.75;99813.63;6256085;22;20360;-79
2021/04/11 00:16:15;;;;;;;7.85;5.03;;;;;;;5.56;53.97;99820.09;6255907;22;19996;-79
2021/04/11 00:18:40;;;;;;;8.70;5.40;;;;;;;5.56;53.68;99818.25;6255753;22;20031;-76
2021/04/11 00:21:05;;;;;;;9.98;5.53;;;;;;;5.57;53.83;99824.38;6294104;22;20003;-77
2021/04/11 00:23:32;;;;;;;7.72;4.80;;;;;;;5.51;53.78;99810.16;6314640;22;20478;-79
2021/04/11 00:25:57;;;;;;;12.02;6.00;;;;;;;5.45;54.03;99816.34;6313778;22;19999;-79
2021/04/11 00:28:23;;;;;;;17.48;7.95;;;;;;;5.37;54.49;99821.94;6315662;22;20007;-79
2021/04/11 00:30:49;;;;;;;19.83;7.68;;;;;;;5.28;54.43;99810.84;6284740;22;20138;-79
2021/04/11 00:33:44;;;;;;;16.35;7.53;;;;;;;5.27;54.79;99819.81;6257694;22;20000;-79
2021/04/11 00:36:50;;;;;;;12.13;6.47;;;;;;;5.27;54.78;99825.13;6292544;22;20000;-82
2021/04/11 00:39:31;;;;;;;13.55;6.97;;;;;;;5.26;55.10;99834.13;6284615;22;20027;-78
2021/04/11 00:42:12;;;;;;;10.85;6.65;;;;;;;5.26;55.50;99837.59;6256676;22;19999;-77
2021/04/11 00:44:38;;;;;;;7.85;5.50;;;;;;;5.25;55.58;99832.50;6280975;22;20002;-77
2021/04/11 00:47:05;;;;;;;9.65;5.80;;;;;;;5.22;55.38;99835.59;6278476;22;19999;-76
2021/04/11 00:49:42;;;;;;;5.63;4.72;;;;;;;5.17;55.51;99835.47;6277206;22;19995;-77
2021/04/11 00:52:11;;;;;;;9.52;4.70;;;;;;;5.05;55.78;99830.84;6253724;22;20004;-78
2021/04/11 00:54:37;;;;;;;6.75;4.43;;;;;;;5.03;55.76;99829.47;6257654;22;20065;-78
2021/04/11 00:57:05;;;;;;;7.57;4.63;;;;;;;5.02;55.83;99827.88;6257173;22;20004;-78
2021/04/11 00:59:31;;;;;;;11.88;5.78;;;;;;;5.00;55.72;99825.41;6281194;22;20336;-77
2021/04/11 01:01:56;;;;;;;7.55;4.70;;;;;;;4.96;55.81;99824.25;6254067;22;20306;-77
2021/04/11 01:04:22;;;;;;;8.32;5.18;;;;;;;4.96;56.07;99827.69;6277609;22;20052;-78
2021/04/11 01:07:03;;;;;;;7.80;4.97;;;;;;;4.98;56.32;99824.84;6252085;22;19996;-79
2021/04/11 01:09:35;;;;;;;8.73;4.63;;;;;;;4.97;55.95;99826.66;6282759;22;20000;-79
2021/04/11 01:12:04;;;;;;;6.72;4.22;;;;;;;4.98;55.47;99822.19;6279859;22;20465;-78
2021/04/11 01:14:31;;;;;;;;;;;;;;;4.97;55.59;99826.66;6281326;22;20063;-77
2021/04/11 01:16:58;;;;;;;9.13;4.57;;;;;;;4.95;55.98;99822.63;6254177;22;19899;-78
2021/04/11 01:19:30;;;;;;;11.25;5.10;;;;;;;4.94;56.09;99821.00;6284013;22;19999;-79
2021/04/11 01:21:59;;;;;;;7.85;4.85;;;;;;;4.91;56.08;99813.50;6255673;22;20003;-77
2021/04/11 01:24:43;;;;;;;9.65;5.35;;;;;;;4.90;56.29;99820.63;6283222;22;20479;-77
2021/04/11 01:27:13;;;;;;;7.90;6.43;;;;;;;4.85;56.59;99815.16;6273264;22;19995;-75
2021/04/11 01:29:40;;;;;;;13.07;8.25;;;;;;;4.85;56.81;99817.81;6277799;22;20071;-76
2021/04/11 01:32:08;;;;;;;11.98;8.73;;;;;;;4.87;57.10;99825.53;6304549;22;20007;-76
2021/04/11 01:34:33;;;;;;;13.40;7.80;;;;;;;4.83;57.11;99816.41;6304548;22;19999;-75
2021/04/11 01:37:00;;;;;;;19.63;10.15;;;;;;;4.82;56.87;99820.91;6307291;22;19999;-74
2021/04/11 01:39:29;;;;;;;25.20;9.27;;;;;;;4.77;57.26;99815.44;6304648;22;20002;-75
2021/04/11 01:41:54;;;;;;;18.27;8.25;;;;;;;4.74;57.04;99821.19;6307442;22;20383;-75
2021/04/11 01:44:24;;;;;;;12.40;8.45;;;;;;;4.71;57.49;99827.75;6308622;22;19995;-77
2021/04/11 01:46:50;;;;;;;16.80;8.70;;;;;;;4.68;57.48;99824.72;6308624;22;20004;-76
2021/04/11 01:49:18;;;;;;;15.90;8.68;;;;;;;4.64;57.86;99821.69;6307284;22;19999;-75
2021/04/11 01:51:47;;;;;;;14.27;7.55;;;;;;;4.61;57.98;99830.88;6306918;22;20006;-74
2021/04/11 01:54:18;;;;;;;14.75;7.88;;;;;;;4.61;58.24;99827.41;6306287;22;20428;-74
2021/04/11 01:56:45;;;;;;;10.05;7.35;;;;;;;4.56;57.79;99820.13;6307506;22;20010;-75
2021/04/11 01:59:17;;;;;;;16.02;10.10;;;;;;;4.52;57.88;99826.88;6308298;22;20045;-75
2021/04/11 02:01:48;;;;;;;15.85;6.75;;;;;;;4.49;57.89;99825.47;6306430;22;20364;-74
2021/04/11 02:04:13;;;;;;;13.40;7.88;;;;;;;4.48;58.09;99833.66;6307041;22;20029;-75
2021/04/11 02:06:46;;;;;;;16.75;7.65;;;;;;;4.43;58.14;99825.53;6307325;22;20367;-74
2021/04/11 02:09:17;;;;;;;13.38;7.47;;;;;;;4.41;58.57;99819.66;6310284;22;20026;-76
2021/04/11 02:11:44;;;;;;;12.88;7.38;;;;;;;4.36;58.37;99824.75;6310200;22;20000;-76
2021/04/11 02:14:11;;;;;;;14.55;8.18;;;;;;;4.35;58.46;99829.25;6283234;22;20438;-76
2021/04/11 02:16:36;;;;;;;13.50;8.05;;;;;;;4.33;58.81;99826.00;6310325;22;20041;-75
2021/04/11 02:19:07;;;;;;;15.65;7.95;;;;;;;4.27;58.85;99825.03;6311492;22;19999;-75
2021/04/11 02:21:34;;;;;;;13.88;7.43;;;;;;;4.26;59.04;99827.88;6285750;22;20018;-75
2021/04/11 02:23:59;;;;;;;12.65;7.05;;;;;;;4.23;58.81;99834.41;6286016;22;20037;-75
2021/04/11 02:26:25;;;;;;;18.95;9.73;;;;;;;4.19;58.81;99835.88;6284114;22;20007;-76
2021/04/11 02:28:51;;;;;;;14.10;8.13;;;;;;;4.17;59.35;99830.00;6287235;22;20023;-75
2021/04/11 02:31:19;;;;;;;14.35;8.00;;;;;;;4.12;59.51;99827.97;6311169;22;20339;-77
2021/04/11 02:33:47;;;;;;;11.57;6.97;;;;;;;4.12;59.47;99837.75;6313095;22;19999;-78
2021/04/11 02:36:34;;;;;;;9.48;6.43;;;;;;;4.07;59.39;99833.09;6289834;22;20025;-81
2021/04/11 02:39:04;;;;;;;;;;;;;;;4.04;59.83;99838.00;6309274;22;20432;-81
2021/04/11 02:41:55;;;;;;;9.40;5.30;;;;;;;3.99;59.31;99834.19;6300528;22;19969;-82
2021/04/11 02:44:21;;;;;;;7.35;5.50;;;;;;;3.95;59.53;99830.31;6290400;22;20006;-80
2021/04/11 02:46:47;;;;;;;10.30;5.30;;;;;;;3.90;60.06;99840.75;6315080;22;20022;-79
2021/04/11 02:49:22;;;;;;;11.00;5.82;;;;;;;3.88;60.15;99848.06;6291813;22;20424;-78
2021/04/11 02:51:48;;;;;;;10.43;6.07;;;;;;;3.82;60.00;99851.56;6287882;22;19998;-79
2021/04/11 02:54:17;;;;;;;10.07;6.43;;;;;;;3.75;59.97;99851.59;6292479;22;20003;-77
2021/04/11 02:56:44;;;;;;;9.60;5.93;;;;;;;3.71;59.90;99850.41;6295628;22;20059;-77
2021/04/11 02:59:13;;;;;;;10.75;5.47;;;;;;;3.70;60.16;99859.38;6293991;22;20003;-79
2021/04/11 03:01:42;;;;;;;12.75;6.50;;;;;;;3.65;60.43;99852.06;6293128;22;20038;-79
2021/04/11 03:04:15;;;;;;;11.80;6.07;;;;;;;3.61;60.51;99852.69;6293206;22;20003;-79
2021/04/11 03:07:05;;;;;;;9.07;5.68;;;;;;;3.58;60.96;99851.28;6293798;22;20003;-78
2021/04/11 03:09:39;;;;;;;10.07;6.18;;;;;;;3.53;61.11;99849.25;6289700;22;20010;-78
2021/04/11 03:12:05;;;;;;;9.90;5.68;;;;;;;3.49;60.84;99853.34;6291263;22;19999;-78
2021/04/11 03:14:34;;;;;;;11.82;6.35;;;;;;;3.46;61.01;99848.47;6293474;22;20010;-78
2021/04/11 03:17:03;;;;;;;11.52;5.78;;;;;;;3.43;60.83;99848.91;6316787;22;20409;-78
2021/04/11 03:19:34;;;;;;;11.93;7.70;;;;;;;3.43;61.45;99856.00;6314887;22;19999;-78
2021/04/11 03:21:59;;;;;;;7.63;5.80;;;;;;;3.38;61.16;99856.63;6288889;22;20554;-79
2021/04/11 03:24:25;;;;;;;9.32;5.22;;;;;;;3.33;61.55;99859.09;6288157;22;20039;-77
2021/04/11 03:27:17;;;;;;;9.43;6.25;;;;;;;3.33;61.08;99872.31;6284303;22;19999;-77
2021/04/11 03:29:48;;;;;;;13.20;7.85;;;;;;;3.27;62.07;99873.13;6248220;22;19999;-77
2021/04/11 03:32:25;;;;;;;9.60;6.53;;;;;;;3.23;61.85;99879.88;6308804;22;20014;-78
2021/04/11 03:34:54;;;;;;;11.65;5.85;;;;;;;3.21;61.77;99877.44;6314023;22;20003;-79
2021/04/11 03:37:22;;;;;;;8.30;5.70;;;;;;;3.18;61.74;99881.28;6286813;22;20003;-79
2021/04/11 03:39:48;;;;;;;11.77;6.90;;;;;;;3.15;61.85;99880.88;6284168;22;20000;-79
2021/04/11 03:42:18;;;;;;;10.73;5.95;;;;;;;3.11;61.76;99874.38;6287296;22;20059;-78
2021/04/11 03:44:43;;;;;;;10.65;5.75;;;;;;;3.11;61.75;99888.41;6279945;22;20424;-77
2021/04/11 03:47:21;;;;;;;11.20;6.85;;;;;;;3.06;62.01;99880.28;6284548;22;20006;-77
2021/04/11 03:50:06;;;;;;;8.13;5.47;;;;;;;3.08;62.21;99890.69;6317525;22;20082;-77
2021/04/11 03:52:35;;;;;;;8.98;5.65;;;;;;;3.10;61.89;99896.56;6316935;22;20003;-78
2021/04/11 03:55:06;;;;;;;10.85;6.10;;;;;;;3.19;62.05;99898.78;6290627;22;20435;-78
2021/04/11 03:58:00;;;;;;;11.07;6.53;;;;;;;3.34;62.05;99898.56;6285116;22;19999;-77
2021/04/11 04:00:44;;;;;;;11.68;5.07;;;;;;;3.49;61.70;99902.75;6312403;22;20064;-79
2021/04/11 04:03:13;;;;;;;11.73;6.95;;;;;;;3.72;61.52;99897.00;6287608;22;20003;-77
2021/04/11 04:05:41;;;;;;;13.77;8.63;;;;;;;3.96;60.92;99897.31;6283420;22;20065;-77
2021/04/11 04:08:06;;;;;;;12.60;7.93;;;;;;;4.21;60.33;99894.75;6309364;22;20003;-76
2021/04/11 04:11:07;;;;;;;15.05;9.95;;;;;;;4.56;59.53;99904.09;6307585;22;20002;-76
2021/04/11 04:13:44;;;;;;;10.95;7.88;;;;;;;4.89;58.97;99909.13;6306989;22;20026;-76
2021/04/11 04:16:27;;;;;;;15.63;7.88;;;;;;;5.25;57.84;99907.56;6285560;22;20010;-78
2021/04/11 04:19:03;;;;;;;9.30;6.22;;;;;;;5.62;56.51;99909.44;6314189;22;20026;-77
2021/04/11 04:21:37;;;;;;;17.67;8.40;;;;;;;6.00;55.41;99905.72;6310382;22;20436;-76
2021/04/11 04:24:03;;;;;;;13.00;7.65;;;;;;;6.41;54.52;99920.09;6305405;22;20075;-76
2021/04/11 04:26:36;;;;;;;11.70;7.18;;;;;;;6.81;53.40;99917.84;6306571;22;20011;-76
2021/04/11 04:29:42;;;;;;;11.82;7.45;;;;;;;7.27;52.28;99921.56;6307172;22;20398;-76
2021/04/11 04:32:59;;;;;;;12.57;6.63;;;;;;;7.79;50.39;99914.69;6306308;22;20030;-74
2021/04/11 04:35:52;;;;;;;15.50;9.30;;;;;;;8.25;49.47;99918.22;6210781;23;20074;-76
2021/04/11 04:38:36;;;;;;;12.50;7.32;;;;;;;8.68;47.90;99910.72;6210428;23;20005;-75
2021/04/11 04:41:14;;;;;;;13.20;8.25;;;;;;;9.12;47.10;99918.06;6293057;22;20065;-76
2021/04/11 04:43:51;;;;;;;11.55;6.75;;;;;;;9.51;46.13;99912.72;6305231;22;19999;-76
2021/04/11 04:46:39;;;;;;;8.95;6.45;;;;;;;9.92;45.44;99915.06;6305794;22;20005;-77
2021/04/11 04:49:07;;;;;;;8.77;6.32;;;;;;;10.34;44.25;99906.41;6277785;22;20030;-77
2021/04/11 04:52:03;;;;;;;11.43;6.18;;;;;;;10.74;44.30;99899.00;6304444;22;19999;-77
2021/04/11 04:54:38;;;;;;;11.20;8.20;;;;;;;11.25;42.85;99909.25;6304501;22;20006;-77
2021/04/11 04:57:47;;;;;;;11.18;6.60;;;;;;;11.72;41.89;99904.13;6303502;22;20003;-78
2021/04/11 05:00:19;;;;;;;9.70;7.20;;;;;;;12.15;40.77;99904.84;6299863;22;20082;-80
2021/04/11 05:02:51;;;;;;;9.95;7.07;;;;;;;12.48;39.03;99905.41;6302527;22;19999;-78
2021/04/11 05:05:18;;;;;;;9.95;6.65;;;;;;;12.72;38.78;99907.56;6302734;22;20006;-78
2021/04/11 05:07:48;;;;;;;9.93;6.93;;;;;;;13.00;38.93;99916.13;6303418;22;20011;-79
2021/04/11 05:10:26;;;;;;;11.65;7.78;;;;;;;13.25;37.96;99920.66;6276702;22;20011;-80
2021/04/11 05:12:59;;;;;;;12.93;8.40;;;;;;;13.52;37.39;99920.34;6276911;22;20074;-79
2021/04/11 05:15:31;;;;;;;12.52;7.95;;;;;;;13.77;37.09;99932.91;6277463;22;20003;-76
2021/04/11 05:18:01;;;;;;;12.38;8.50;;;;;;;14.03;36.30;99929.28;6306763;22;20003;-76
2021/04/11 05:20:31;;;;;;;12.43;8.23;;;;;;;14.28;35.56;99930.22;6278383;22;20003;-79
2021/04/11 05:23:30;;;;;;;11.00;8.07;;;;;;;14.42;34.92;99933.91;6304160;22;20076;-78
2021/04/11 05:26:16;;;;;;;11.57;7.55;;;;;;;14.58;34.90;99930.00;6279492;22;20420;-78
2021/04/11 05:28:48;;;;;;;10.38;8.10;;;;;;;14.78;35.03;99930.97;6277826;22;20493;-78
2021/04/11 05:31:24;;;;;;;15.30;9.93;;;;;;;14.97;34.77;99924.88;6273756;22;20015;-78
2021/04/11 05:33:51;;;;;;;21.48;10.75;;;;;;;15.21;34.33;99935.69;6273399;22;20114;-79
2021/04/11 05:36:26;;;;;;;16.70;11.02;;;;;;;15.37;34.18;99937.13;6248249;22;20004;-79
2021/04/11 05:39:05;;;;;;;19.08;11.75;;;;;;;15.36;33.75;99942.81;6275610;22;20007;-78
2021/04/11 05:41:40;;;;;;;21.35;13.38;;;;;;;15.32;33.76;99937.19;6248587;22;20037;-79
2021/04/11 05:44:16;;;;;;;22.38;14.95;;;;;;;15.40;33.65;99929.56;6274205;22;20327;-76
2021/04/11 05:46:58;;;;;;;18.35;12.25;;;;;;;15.40;33.27;99929.56;6275714;22;20000;-77
2021/04/11 05:49:31;;;;;;;16.70;10.32;;;;;;;15.30;33.60;99919.72;6275455;22;20251;-76
2021/04/11 05:52:01;;;;;;;19.20;10.55;;;;;;;15.33;33.24;99922.63;6248548;22;20004;-78
2021/04/11 05:54:33;;;;;;;17.58;10.48;;;;;;;15.39;33.28;99919.88;6248376;22;20062;-76
2021/04/11 05:57:32;;;;;;;14.80;9.50;;;;;;;15.48;33.15;99924.34;6248497;22;20000;-77
2021/04/11 06:00:04;;;;;;;11.45;7.90;;;;;;;15.52;33.42;99938.84;6256343;22;20000;-76
2021/04/11 06:02:44;;;;;;;14.57;7.93;;;;;;;15.56;32.75;99930.22;6273720;22;20000;-75
2021/04/11 06:05:24;;;;;;;13.52;8.75;;;;;;;15.57;32.34;99929.13;6248514;22;20057;-75
2021/04/11 06:08:12;;;;;;;15.15;9.45;;;;;;;15.55;32.71;99934.81;6273643;22;20061;-77
2021/04/11 06:10:44;;;;;;;14.50;9.32;;;;;;;15.49;32.45;99927.84;6248239;22;20007;-77
2021/04/11 06:13:18;;;;;;;14.10;8.35;;;;;;;15.37;32.74;99925.56;6273861;22;20087;-75
2021/04/11 06:15:50;;;;;;;12.38;8.13;;;;;;;15.20;32.81;99928.72;6275275;22;20261;-75
2021/04/11 06:18:15;;;;;;;11.02;7.97;;;;;;;14.93;33.63;99931.91;6274061;22;20010;-81
2021/04/11 06:20:46;;;;;;;15.32;7.45;;;;;;;14.84;34.52;99934.41;6273269;22;20015;-82
2021/04/11 06:23:29;;;;;;;11.13;8.40;;;;;;;14.72;34.88;99924.81;6273095;22;20008;-79
2021/04/11 06:26:13;;;;;;;13.32;9.45;;;;;;;14.58;34.83;99935.38;6273718;22;20008;-79
2021/04/11 06:28:50;;;;;;;16.02;9.77;;;;;;;14.48;35.00;99942.75;6273578;22;20000;-78
2021/04/11 06:31:29;;;;;;;15.43;9.02;;;;;;;14.39;35.37;99945.19;6263440;22;20478;-82
2021/04/11 06:34:15;;;;;;;13.40;9.30;;;;;;;14.35;35.45;99947.66;6279326;22;20092;-82
2021/04/11 06:36:43;;;;;;;12.65;7.80;;;;;;;14.28;35.79;99955.25;6279073;22;20003;-85
2021/04/11 06:39:20;;;;;;;9.05;8.00;;;;;;;14.15;35.45;99955.88;6279307;22;20056;-90
2021/04/11 06:42:10;;;;;;;5.80;4.43;;;;;;;13.80;35.29;99961.09;6304280;22;20007;-86
2021/04/11 06:45:10;;;;;;;5.63;4.38;;;;;;;13.41;36.38;99949.13;6278811;22;20011;-82
2021/04/11 06:48:13;;;;;;;6.68;4.60;;;;;;;12.97;36.56;99958.59;6258296;22;20065;-85
2021/04/11 06:50:41;;;;;;;7.30;5.25;;;;;;;12.57;38.34;99968.22;6304191;22;20006;-83
2021/04/11 06:53:25;;;;;;;10.18;5.25;;;;;;;12.14;39.96;99970.25;6278537;22;20003;-83
2021/04/11 06:56:06;;;;;;;7.63;5.55;;;;;;;11.95;39.64;99975.25;6278029;22;20412;-81
2021/04/11 06:59:13;;;;;;;9.40;4.75;;;;;;;11.69;39.96;99978.63;6277929;22;20006;-85
2021/04/11 07:01:57;;;;;;;8.95;4.60;;;;;;;11.58;41.35;99982.31;6303939;22;20003;-78
2021/04/11 07:04:28;;;;;;;7.13;5.20;;;;;;;11.46;41.69;99979.03;6278460;22;20515;-79
2021/04/11 07:07:25;;;;;;;6.57;4.53;;;;;;;11.46;41.17;99989.72;6278258;22;20010;-85
2021/04/11 07:10:27;;;;;;;7.20;4.30;;;;;;;11.32;41.28;99982.16;6304187;22;20014;-80
2021/04/11 07:16:55;;;;;;;7.35;4.53;;;;;;;10.97;42.35;99983.50;6312364;22;20013;-84
2021/04/11 07:19:57;;;;;;;5.40;4.43;;;;;;;10.77;43.53;99980.66;6309598;22;19995;-81
2021/04/11 07:22:52;;;;;;;7.43;5.05;;;;;;;10.60;43.82;99970.06;6278379;22;20089;-77
2021/04/11 07:25:23;;;;;;;8.13;5.03;;;;;;;10.50;44.18;99978.81;6235190;22;20000;-78
2021/04/11 07:27:57;;;;;;;9.00;5.07;;;;;;;10.44;44.76;99982.50;6278957;22;19995;-77
2021/04/11 07:30:35;;;;;;;8.20;5.03;;;;;;;10.41;45.69;99976.59;6306468;22;19996;-76
2021/04/11 07:33:16;;;;;;;9.52;5.15;;;;;;;10.34;45.48;99975.13;6306815;22;20004;-76
2021/04/11 07:35:50;;;;;;;10.60;4.50;;;;;;;10.29;46.44;99975.06;6279533;22;20002;-76
2021/04/11 07:38:34;;;;;;;7.15;4.60;;;;;;;10.29;46.85;99972.38;6305053;22;19995;-77
2021/04/11 07:41:21;;;;;;;5.10;3.80;;;;;;;10.29;46.75;99967.03;6279781;22;20000;-78
2021/04/11 07:44:45;;;;;;;7.90;4.38;;;;;;;10.33;46.77;99963.63;6279218;22;20464;-90
2021/04/11 07:47:57;;;;;;;5.10;4.43;;;;;;;10.34;47.38;99962.56;6303756;22;20003;-81
2021/04/11 07:50:59;;;;;;;5.25;3.78;;;;;;;10.29;48.51;99967.88;6276758;22;20002;-79
2021/04/11 07:54:01;;;;;;;7.93;4.60;;;;;;;10.30;48.68;99974.84;6278317;22;20076;-79
2021/04/11 07:56:41;;;;;;;5.68;4.57;;;;;;;10.37;48.60;99959.41;6299453;22;19995;-78
2021/04/11 07:59:09;;;;;;;6.88;4.38;;;;;;;10.46;48.39;99964.31;6302209;22;20002;-84
2021/04/11 08:02:13;;;;;;;7.30;4.55;;;;;;;10.55;48.29;99963.59;6275459;22;20029;-81
2021/04/11 08:05:13;;;;;;;5.15;3.90;;;;;;;10.76;48.16;99957.66;6276397;22;19999;-79
2021/04/11 08:08:12;;;;;;;6.45;4.95;;;;;;;10.97;47.89;99967.44;6275986;22;19999;-86
2021/04/11 08:11:05;;;;;;;5.10;4.07;;;;;;;11.07;47.39;99963.22;6302208;22;19998;-86
2021/04/11 08:14:09;;;;;;;4.40;3.47;;;;;;;11.22;47.21;99963.34;6277444;22;19991;-76
2021/04/11 08:16:54;;;;;;;7.78;4.53;;;;;;;11.29;46.80;99961.25;6304756;22;19998;-75
2021/04/11 08:19:37;;;;;;;6.00;3.80;;;;;;;11.32;48.10;99957.25;6304778;22;19991;-77
2021/04/11 08:22:23;;;;;;;6.80;4.68;;;;;;;11.34;47.25;99958.59;6277553;22;20121;-76
2021/04/11 08:25:02;;;;;;;6.25;4.80;;;;;;;11.35;47.19;99968.25;6304009;22;20003;-77
2021/04/11 08:27:39;;;;;;;;;;;;;;;11.41;47.11;99966.41;6303312;22;20010;-78
2021/04/11 08:30:11;;;;;;;5.83;4.27;;;;;;;11.45;47.19;99961.34;6302792;22;20263;-77
2021/04/11 08:33:13;;;;;;;6.05;5.07;;;;;;;11.49;49.16;99959.78;6301795;22;20007;-77
2021/04/11 08:36:02;;;;;;;8.13;4.85;;;;;;;11.61;48.55;99956.88;6276504;22;20009;-77
2021/04/11 08:38:46;;;;;;;7.32;4.28;;;;;;;11.62;47.52;99953.13;6302413;22;20010;-78
2021/04/11 08:41:45;;;;;;;7.75;4.30;;;;;;;11.65;47.81;99953.41;6277232;22;20062;-77
2021/04/11 08:44:31;;;;;;;5.80;4.35;;;;;;;11.66;48.37;99949.66;6277149;22;20019;-77
2021/04/11 08:47:22;;;;;;;5.97;3.63;;;;;;;11.70;47.38;99941.91;6244686;22;20003;-77
2021/04/11 08:50:13;;;;;;;7.82;5.05;;;;;;;11.76;46.79;99943.53;6235558;22;20435;-77
2021/04/11 08:52:51;;;;;;;9.77;5.18;;;;;;;11.84;46.12;99936.91;6302863;22;20458;-77
2021/04/11 08:55:24;;;;;;;;;;;;;;;11.90;46.14;99930.50;6304106;22;20087;-78
2021/04/11 08:58:01;;;;;;;8.38;4.50;;;;;;;12.01;46.21;99928.66;6277211;22;19965;-78
2021/04/11 09:00:42;;;;;;;5.85;4.15;;;;;;;12.10;46.83;99932.44;6277215;22;20003;-76
2021/04/11 09:03:37;;;;;;;9.05;4.80;;;;;;;12.12;46.51;99926.81;6303261;22;20558;-78
2021/04/11 09:06:21;;;;;;;7.60;5.28;;;;;;;12.21;48.08;99921.75;6277459;22;20375;-77
2021/04/11 09:09:15;;;;;;;8.60;4.68;;;;;;;12.26;47.14;99929.81;6277318;22;19996;-77
2021/04/11 09:12:05;;;;;;;6.15;4.30;;;;;;;12.24;46.49;99937.31;6303081;22;19999;-78
2021/04/11 09:15:01;;;;;;;7.80;5.55;;;;;;;12.15;46.60;99937.81;6277739;22;20003;-78
2021/04/11 09:17:49;;;;;;;8.50;6.15;;;;;;;12.13;46.70;99928.41;6277347;22;20038;-78
2021/04/11 09:20:25;;;;;;;9.98;5.13;;;;;;;12.11;46.37;99920.66;6303714;22;20098;-78
2021/04/11 09:22:59;;;;;;;6.38;4.40;;;;;;;12.06;46.26;99925.19;6302930;22;20031;-78
2021/04/11 09:25:30;;;;;;;6.32;5.13;;;;;;;12.05;46.50;99932.44;6303460;22;20072;-78
2021/04/11 09:28:10;;;;;;;8.27;6.03;;;;;;;12.05;46.31;99932.44;6302778;22;20309;-78
2021/04/11 09:30:35;;;;;;;5.60;5.07;;;;;;;12.04;46.51;99920.09;6303163;22;20014;-78
2021/04/11 09:33:28;;;;;;;9.00;5.43;;;;;;;12.10;47.46;99915.56;6277204;22;20015;-78
2021/04/11 09:36:13;;;;;;;8.63;5.60;;;;;;;12.24;47.46;99910.47;6304673;22;20317;-78
2021/04/11 09:38:51;;;;;;;10.23;5.18;;;;;;;12.38;46.94;99911.59;6277572;22;19999;-78
2021/04/11 09:41:47;;;;;;;8.18;5.40;;;;;;;12.57;46.65;99909.19;6303366;22;20003;-78
2021/04/11 09:44:40;;;;;;;7.60;4.70;;;;;;;12.60;46.00;99908.63;6277408;22;20471;-78
2021/04/11 09:47:35;;;;;;;7.43;4.72;;;;;;;12.60;45.56;99902.47;6277165;22;20084;-78
2021/04/11 09:50:10;;;;;;;5.72;5.10;;;;;;;12.65;45.16;99897.09;6277116;22;20320;-78
2021/04/11 09:53:12;;;;;;;7.28;5.38;;;;;;;12.67;45.12;99894.97;6302793;22;20006;-78
2021/04/11 09:56:09;;;;;;;6.72;4.03;;;;;;;12.60;44.40;99900.59;6277452;22;20007;-78
2021/04/11 09:58:47;;;;;;;6.95;5.43;;;;;;;12.59;43.89;99895.50;6277680;22;20313;-79
2021/04/11 10:01:20;;;;;;;6.97;4.68;;;;;;;12.65;44.21;99889.06;6304239;22;20501;-78
2021/04/11 10:04:04;;;;;;;6.30;4.50;;;;;;;12.71;43.98;99884.50;6304656;22;20027;-78
2021/04/11 10:06:59;;;;;;;7.70;4.00;;;;;;;12.75;43.96;99891.72;6279423;22;20006;-78
2021/04/11 10:09:43;;;;;;;7.50;4.43;;;;;;;12.77;43.86;99894.16;6279260;22;20002;-78
2021/04/11 10:12:33;;;;;;;4.35;3.90;;;;;;;12.82;43.25;99886.88;6279195;22;20009;-77
2021/04/11 10:15:31;;;;;;;6.63;4.25;;;;;;;12.89;43.49;99885.81;6304699;22;20000;-78
2021/04/11 10:18:19;;;;;;;4.13;3.72;;;;;;;12.99;41.96;99891.19;6296047;22;20428;-77
2021/04/11 10:20:59;;;;;;;;;;;;;;;13.07;41.00;99887.94;6304880;22;20375;-77
2021/04/11 10:23:57;;;;;;;3.50;2.85;;;;;;;13.09;41.01;99884.97;6278902;22;20306;-77
2021/04/11 10:26:44;;;;;;;4.00;3.10;;;;;;;13.14;41.25;99871.53;6306263;22;19999;-79
2021/04/11 10:29:14;;;;;;;5.10;3.50;;;;;;;13.23;42.65;99872.59;6304779;22;20005;-78
2021/04/11 10:31:57;;;;;;;4.70;3.25;;;;;;;13.27;41.96;99873.66;6304320;22;20460;-78
2021/04/11 10:34:44;;;;;;;4.50;3.55;;;;;;;13.31;41.16;99879.28;6304716;22;20003;-76
2021/04/11 10:37:30;;;;;;;3.75;3.35;;;;;;;13.27;41.95;99880.91;6306219;22;19995;-77
2021/04/11 10:40:07;;;;;;;3.25;2.85;;;;;;;13.27;40.49;99872.84;6306261;22;19995;-78
2021/04/11 10:42:46;;;;;;;3.92;3.17;;;;;;;13.21;38.80;99868.59;6304738;22;19999;-77
2021/04/11 10:45:28;;;;;;;6.57;3.08;;;;;;;13.19;38.98;99868.03;6278660;22;20447;-78
2021/04/11 10:48:06;;;;;;;4.60;3.38;;;;;;;13.24;40.38;99860.78;6304559;22;20007;-77
2021/04/11 10:50:41;;;;;;;;;;;;;;;13.31;41.33;99857.78;6307196;22;19999;-77
2021/04/11 10:53:29;;;;;;;5.15;3.55;;;;;;;13.31;41.41;99855.09;6278608;22;20362;-76
2021/04/11 10:56:12;;;;;;;3.10;2.78;;;;;;;13.33;40.55;99852.97;6278602;22;20003;-78
2021/04/11 10:59:00;;;;;;;5.05;3.25;;;;;;;13.41;40.25;99843.53;6304723;22;20006;-78
2021/04/11 11:01:50;;;;;;;3.35;2.97;;;;;;;13.55;40.87;99855.31;6304158;22;20501;-78
2021/04/11 11:04:37;;;;;;;3.60;3.30;;;;;;;13.64;41.94;99850.16;6278572;22;20309;-77
2021/04/11 11:07:44;;;;;;;4.78;3.10;;;;;;;13.66;40.13;99848.00;6278393;22;20084;-79
2021/04/11 11:10:20;;;;;;;4.78;3.80;;;;;;;13.68;39.62;99845.03;6234872;22;20037;-77
2021/04/11 11:13:10;;;;;;;5.15;4.00;;;;;;;13.68;39.14;99845.03;6277476;22;20014;-78
2021/04/11 11:15:45;;;;;;;6.70;4.13;;;;;;;13.70;39.71;99837.50;6278379;22;20149;-79
2021/04/11 11:18:29;;;;;;;5.82;3.03;;;;;;;13.75;38.95;99838.25;6304192;22;19999;-79
2021/04/11 11:21:23;;;;;;;4.50;3.83;;;;;;;13.74;39.59;99843.94;6277966;22;20003;-78
2021/04/11 11:24:26;;;;;;;4.18;3.30;;;;;;;13.75;40.12;99832.88;6277706;22;19999;-78
2021/04/11 11:27:12;;;;;;;5.22;3.47;;;;;;;13.83;40.34;99836.91;6242661;22;20076;-78
2021/04/11 11:30:15;;;;;;;5.18;3.42;;;;;;;13.89;39.22;99832.28;6303747;22;20003;-78
2021/04/11 11:32:55;;;;;;;5.20;3.70;;;;;;;13.92;38.11;99820.97;6278347;22;20034;-78
2021/04/11 11:35:22;;;;;;;7.85;3.63;;;;;;;14.04;38.82;99816.03;6304174;22;20495;-77
2021/04/11 11:38:35;;;;;;;5.03;3.42;;;;;;;14.06;36.84;99813.06;6305368;22;20005;-78
2021/04/11 11:41:13;;;;;;;3.83;3.10;;;;;;;14.05;36.69;99811.50;6210021;23;20020;-77
2021/04/11 11:44:03;;;;;;;5.00;3.90;;;;;;;14.08;36.04;99817.09;6210413;23;20038;-79
2021/04/11 11:46:52;;;;;;;4.00;3.50;;;;;;;14.03;34.83;99819.81;6256086;22;20038;-79
2021/04/11 11:49:28;;;;;;;4.10;3.28;;;;;;;14.08;35.26;99817.09;6258786;22;20083;-77
2021/04/11 11:52:08;;;;;;;4.45;3.30;;;;;;;14.14;35.17;99815.16;6305243;22;20408;-78
2021/04/11 11:54:53;;;;;;;3.17;2.90;;;;;;;14.18;31.75;99820.78;6277641;22;20007;-78
2021/04/11 11:57:22;;;;;;;3.22;2.92;;;;;;;14.25;32.65;99815.91;6278102;22;20002;-78
2021/04/11 12:00:18;;;;;;;4.05;3.65;;;;;;;14.32;31.63;99810.19;6277635;22;20033;-78
2021/04/11 12:03:11;;;;;;;5.90;3.17;;;;;;;14.39;31.20;99807.97;6277919;22;19999;-78
2021/04/11 12:05:36;;;;;;;5.85;3.17;;;;;;;14.39;30.95;99794.50;6278130;22;20004;-79
2021/04/11 12:08:14;;;;;;;4.47;3.20;;;;;;;14.41;30.17;99801.25;6277948;22;20328;-78
2021/04/11 12:11:12;;;;;;;5.82;3.28;;;;;;;14.44;29.86;99786.41;6303777;22;20025;-79
2021/04/11 12:13:43;;;;;;;;;;;;;;;14.51;29.44;99781.50;6235303;22;20543;-77
2021/04/11 12:16:31;;;;;;;3.08;2.78;;;;;;;14.54;29.41;99782.81;6277838;22;19941;-77
2021/04/11 12:19:11;;;;;;;4.22;2.72;;;;;;;14.57;27.55;99777.69;6277893;22;20089;-77
2021/04/11 12:21:51;;;;;;;3.60;2.75;;;;;;;14.67;28.66;99774.09;6303636;22;20031;-78
2021/04/11 12:24:26;;;;;;;6.68;3.10;;;;;;;14.79;28.73;99772.91;6277512;22;20021;-78
2021/04/11 12:27:02;;;;;;;4.32;2.90;;;;;;;14.89;28.00;99770.91;6303499;22;20084;-78
2021/04/11 12:29:30;;;;;;;4.55;3.47;;;;;;;14.94;28.59;99764.66;6277784;22;20003;-78
2021/04/11 12:31:59;;;;;;;4.30;2.80;;;;;;;15.07;29.06;99762.34;6303377;22;20405;-78
2021/04/11 12:34:30;;;;;;;;;;;;;;;15.13;28.67;99761.19;6278626;22;20014;-78